sensor_id;sensor_type;location;lat;lon;timestamp;P1;P2;P0
55518;PMS5003;41724;51.176;-0.708;2024-02-26T00:01:13;15;15;
55518;PMS5003;41724;51.176;-0.708;2024-02-26T00:03:40;14;14;
55518;PMS5003;41724;51.176;-0.708;2024-02-26T00:06:08;11;11;
55518;PMS5003;41724;51.176;-0.708;2024-02-26T00:08:35;12;12;
55518;PMS5003;41724;51.176;-0.708;2024-02-26T00:11:02;13;13;
55518;PMS5003;41724;51.176;-0.708;2024-02-26T00:13:29;12;11;
55518;PMS5003;41724;51.176;-0.708;2024-02-26T00:15:57;13;12;
55518;PMS5003;41724;51.176;-0.708;2024-02-26T00:18:23;15;14;
55518;PMS5003;41724;51.176;-0.708;2024-02-26T00:20:51;12;12;
55518;PMS5003;41724;51.176;-0.708;2024-02-26T00:23:18;11;11;
55518;PMS5003;41724;51.176;-0.708;2024-02-26T00:25:44;9;9;
55518;PMS5003;41724;51.176;-0.708;2024-02-26T00:28:11;11;11;
55518;PMS5003;41724;51.176;-0.708;2024-02-26T00:30:40;14;13;
55518;PMS5003;41724;51.176;-0.708;2024-02-26T00:33:07;9;9;
55518;PMS5003;41724;51.176;-0.708;2024-02-26T00:35:34;12;12;
55518;PMS5003;41724;51.176;-0.708;2024-02-26T00:38:01;11;10;
55518;PMS5003;41724;51.176;-0.708;2024-02-26T00:40:29;13;12;
55518;PMS5003;41724;51.176;-0.708;2024-02-26T00:42:56;14;12;
55518;PMS5003;41724;51.176;-0.708;2024-02-26T00:45:23;12;11;
55518;PMS5003;41724;51.176;-0.708;2024-02-26T00:47:51;16;15;
55518;PMS5003;41724;51.176;-0.708;2024-02-26T00:50:18;16;13;
55518;PMS5003;41724;51.176;-0.708;2024-02-26T00:52:45;14;13;
55518;PMS5003;41724;51.176;-0.708;2024-02-26T00:55:12;11;11;
55518;PMS5003;41724;51.176;-0.708;2024-02-26T00:57:40;11;11;
55518;PMS5003;41724;51.176;-0.708;2024-02-26T01:00:07;11;11;
55518;PMS5003;41724;51.176;-0.708;2024-02-26T01:02:35;12;12;
55518;PMS5003;41724;51.176;-0.708;2024-02-26T01:05:02;8;8;
55518;PMS5003;41724;51.176;-0.708;2024-02-26T01:07:30;11;9;
55518;PMS5003;41724;51.176;-0.708;2024-02-26T01:09:57;12;12;
55518;PMS5003;41724;51.176;-0.708;2024-02-26T01:12:24;11;11;
55518;PMS5003;41724;51.176;-0.708;2024-02-26T01:14:51;8;8;
55518;PMS5003;41724;51.176;-0.708;2024-02-26T01:17:18;9;9;
55518;PMS5003;41724;51.176;-0.708;2024-02-26T01:19:45;18;17;
55518;PMS5003;41724;51.176;-0.708;2024-02-26T01:22:12;12;11;
55518;PMS5003;41724;51.176;-0.708;2024-02-26T01:24:39;9;8;
55518;PMS5003;41724;51.176;-0.708;2024-02-26T01:27:06;12;12;
55518;PMS5003;41724;51.176;-0.708;2024-02-26T01:29:33;9;9;
55518;PMS5003;41724;51.176;-0.708;2024-02-26T01:32:01;11;11;
55518;PMS5003;41724;51.176;-0.708;2024-02-26T01:34:28;9;9;
55518;PMS5003;41724;51.176;-0.708;2024-02-26T01:36:54;7;7;
55518;PMS5003;41724;51.176;-0.708;2024-02-26T01:39:22;11;11;
55518;PMS5003;41724;51.176;-0.708;2024-02-26T01:41:49;9;8;
55518;PMS5003;41724;51.176;-0.708;2024-02-26T01:44:16;9;9;
55518;PMS5003;41724;51.176;-0.708;2024-02-26T01:46:43;12;12;
55518;PMS5003;41724;51.176;-0.708;2024-02-26T01:49:11;12;11;
55518;PMS5003;41724;51.176;-0.708;2024-02-26T01:51:39;12;12;
55518;PMS5003;41724;51.176;-0.708;2024-02-26T01:54:09;9;8;
55518;PMS5003;41724;51.176;-0.708;2024-02-26T01:56:36;9;9;
55518;PMS5003;41724;51.176;-0.708;2024-02-26T01:59:05;11;9;
55518;PMS5003;41724;51.176;-0.708;2024-02-26T02:01:34;14;12;
55518;PMS5003;41724;51.176;-0.708;2024-02-26T02:04:02;13;12;
55518;PMS5003;41724;51.176;-0.708;2024-02-26T02:06:30;11;9;
55518;PMS5003;41724;51.176;-0.708;2024-02-26T02:08:57;13;11;
55518;PMS5003;41724;51.176;-0.708;2024-02-26T02:11:24;11;9;
55518;PMS5003;41724;51.176;-0.708;2024-02-26T02:13:51;13;12;
55518;PMS5003;41724;51.176;-0.708;2024-02-26T02:16:19;11;11;
55518;PMS5003;41724;51.176;-0.708;2024-02-26T02:18:46;11;11;
55518;PMS5003;41724;51.176;-0.708;2024-02-26T02:21:13;10;10;
55518;PMS5003;41724;51.176;-0.708;2024-02-26T02:23:40;9;9;
55518;PMS5003;41724;51.176;-0.708;2024-02-26T02:26:07;13;12;
55518;PMS5003;41724;51.176;-0.708;2024-02-26T02:28:34;18;15;
55518;PMS5003;41724;51.176;-0.708;2024-02-26T02:31:01;11;11;
55518;PMS5003;41724;51.176;-0.708;2024-02-26T02:33:29;12;12;
55518;PMS5003;41724;51.176;-0.708;2024-02-26T02:35:56;12;12;
55518;PMS5003;41724;51.176;-0.708;2024-02-26T02:38:23;14;13;
55518;PMS5003;41724;51.176;-0.708;2024-02-26T02:40:50;12;11;
55518;PMS5003;41724;51.176;-0.708;2024-02-26T02:43:18;12;10;
55518;PMS5003;41724;51.176;-0.708;2024-02-26T02:45:45;14;13;
55518;PMS5003;41724;51.176;-0.708;2024-02-26T02:48:12;14;13;
55518;PMS5003;41724;51.176;-0.708;2024-02-26T02:50:39;12;12;
55518;PMS5003;41724;51.176;-0.708;2024-02-26T02:53:06;8;8;
55518;PMS5003;41724;51.176;-0.708;2024-02-26T02:55:33;11;11;
55518;PMS5003;41724;51.176;-0.708;2024-02-26T02:58:01;11;11;
55518;PMS5003;41724;51.176;-0.708;2024-02-26T03:00:27;13;9;
55518;PMS5003;41724;51.176;-0.708;2024-02-26T03:02:54;11;8;
55518;PMS5003;41724;51.176;-0.708;2024-02-26T03:05:21;12;11;
55518;PMS5003;41724;51.176;-0.708;2024-02-26T03:07:48;8;8;
55518;PMS5003;41724;51.176;-0.708;2024-02-26T03:10:15;8;7;
55518;PMS5003;41724;51.176;-0.708;2024-02-26T03:12:42;8;8;
55518;PMS5003;41724;51.176;-0.708;2024-02-26T03:15:10;11;11;
55518;PMS5003;41724;51.176;-0.708;2024-02-26T03:17:37;9;8;
55518;PMS5003;41724;51.176;-0.708;2024-02-26T03:20:04;10;8;
55518;PMS5003;41724;51.176;-0.708;2024-02-26T03:22:33;8;7;
55518;PMS5003;41724;51.176;-0.708;2024-02-26T03:25:00;10;10;
55518;PMS5003;41724;51.176;-0.708;2024-02-26T03:27:27;9;9;
55518;PMS5003;41724;51.176;-0.708;2024-02-26T03:29:55;13;11;
55518;PMS5003;41724;51.176;-0.708;2024-02-26T03:32:22;8;8;
55518;PMS5003;41724;51.176;-0.708;2024-02-26T03:34:49;8;7;
55518;PMS5003;41724;51.176;-0.708;2024-02-26T03:37:16;7;7;
55518;PMS5003;41724;51.176;-0.708;2024-02-26T03:39:43;9;7;
55518;PMS5003;41724;51.176;-0.708;2024-02-26T03:42:10;7;7;
55518;PMS5003;41724;51.176;-0.708;2024-02-26T03:44:38;7;7;
55518;PMS5003;41724;51.176;-0.708;2024-02-26T03:47:05;9;8;
55518;PMS5003;41724;51.176;-0.708;2024-02-26T03:49:32;9;9;
55518;PMS5003;41724;51.176;-0.708;2024-02-26T03:51:59;7;6;
55518;PMS5003;41724;51.176;-0.708;2024-02-26T03:54:26;7;7;
55518;PMS5003;41724;51.176;-0.708;2024-02-26T03:56:53;8;8;
55518;PMS5003;41724;51.176;-0.708;2024-02-26T03:59:20;7;7;
55518;PMS5003;41724;51.176;-0.708;2024-02-26T04:01:47;10;10;
55518;PMS5003;41724;51.176;-0.708;2024-02-26T04:04:14;7;7;
55518;PMS5003;41724;51.176;-0.708;2024-02-26T04:06:44;7;7;
55518;PMS5003;41724;51.176;-0.708;2024-02-26T04:09:11;9;8;
55518;PMS5003;41724;51.176;-0.708;2024-02-26T04:11:40;5;5;
55518;PMS5003;41724;51.176;-0.708;2024-02-26T04:14:07;10;10;
55518;PMS5003;41724;51.176;-0.708;2024-02-26T04:16:34;6;6;
55518;PMS5003;41724;51.176;-0.708;2024-02-26T04:19:02;7;7;
55518;PMS5003;41724;51.176;-0.708;2024-02-26T04:21:29;6;6;
55518;PMS5003;41724;51.176;-0.708;2024-02-26T04:23:56;6;6;
55518;PMS5003;41724;51.176;-0.708;2024-02-26T04:26:23;5;5;
55518;PMS5003;41724;51.176;-0.708;2024-02-26T04:28:51;6;6;
55518;PMS5003;41724;51.176;-0.708;2024-02-26T04:31:18;7;7;
55518;PMS5003;41724;51.176;-0.708;2024-02-26T04:33:45;5;5;
55518;PMS5003;41724;51.176;-0.708;2024-02-26T04:36:13;5;5;
55518;PMS5003;41724;51.176;-0.708;2024-02-26T04:38:39;6;5;
55518;PMS5003;41724;51.176;-0.708;2024-02-26T04:41:07;4;4;
55518;PMS5003;41724;51.176;-0.708;2024-02-26T04:43:34;5;4;
55518;PMS5003;41724;51.176;-0.708;2024-02-26T04:46:02;6;5;
55518;PMS5003;41724;51.176;-0.708;2024-02-26T04:48:29;6;5;
55518;PMS5003;41724;51.176;-0.708;2024-02-26T04:50:56;4;4;
55518;PMS5003;41724;51.176;-0.708;2024-02-26T04:53:23;5;5;
55518;PMS5003;41724;51.176;-0.708;2024-02-26T04:55:51;6;5;
55518;PMS5003;41724;51.176;-0.708;2024-02-26T04:58:18;4;4;
55518;PMS5003;41724;51.176;-0.708;2024-02-26T05:00:45;6;5;
55518;PMS5003;41724;51.176;-0.708;2024-02-26T05:03:12;5;5;
55518;PMS5003;41724;51.176;-0.708;2024-02-26T05:05:40;6;5;
55518;PMS5003;41724;51.176;-0.708;2024-02-26T05:08:07;4;4;
55518;PMS5003;41724;51.176;-0.708;2024-02-26T05:10:34;6;5;
55518;PMS5003;41724;51.176;-0.708;2024-02-26T05:13:01;5;5;
55518;PMS5003;41724;51.176;-0.708;2024-02-26T05:15:29;5;5;
55518;PMS5003;41724;51.176;-0.708;2024-02-26T05:17:56;6;6;
55518;PMS5003;41724;51.176;-0.708;2024-02-26T05:20:23;5;5;
55518;PMS5003;41724;51.176;-0.708;2024-02-26T05:22:50;7;5;
55518;PMS5003;41724;51.176;-0.708;2024-02-26T05:25:18;7;6;
55518;PMS5003;41724;51.176;-0.708;2024-02-26T05:27:45;9;6;
55518;PMS5003;41724;51.176;-0.708;2024-02-26T05:30:12;6;5;
55518;PMS5003;41724;51.176;-0.708;2024-02-26T05:32:39;6;6;
55518;PMS5003;41724;51.176;-0.708;2024-02-26T05:35:07;5;4;
55518;PMS5003;41724;51.176;-0.708;2024-02-26T05:37:34;5;5;
55518;PMS5003;41724;51.176;-0.708;2024-02-26T05:40:01;5;4;
55518;PMS5003;41724;51.176;-0.708;2024-02-26T05:42:28;4;4;
55518;PMS5003;41724;51.176;-0.708;2024-02-26T05:44:56;3;3;
55518;PMS5003;41724;51.176;-0.708;2024-02-26T05:47:23;4;4;
55518;PMS5003;41724;51.176;-0.708;2024-02-26T05:49:50;5;5;
55518;PMS5003;41724;51.176;-0.708;2024-02-26T05:52:17;4;3;
55518;PMS5003;41724;51.176;-0.708;2024-02-26T05:54:45;4;4;
55518;PMS5003;41724;51.176;-0.708;2024-02-26T05:57:12;4;4;
55518;PMS5003;41724;51.176;-0.708;2024-02-26T05:59:39;6;6;
55518;PMS5003;41724;51.176;-0.708;2024-02-26T06:02:06;4;4;
55518;PMS5003;41724;51.176;-0.708;2024-02-26T06:04:34;5;5;
55518;PMS5003;41724;51.176;-0.708;2024-02-26T06:07:01;4;4;
55518;PMS5003;41724;51.176;-0.708;2024-02-26T06:09:28;4;4;
55518;PMS5003;41724;51.176;-0.708;2024-02-26T06:11:55;5;5;
55518;PMS5003;41724;51.176;-0.708;2024-02-26T06:14:23;5;5;
55518;PMS5003;41724;51.176;-0.708;2024-02-26T06:16:50;6;5;
55518;PMS5003;41724;51.176;-0.708;2024-02-26T06:19:17;4;4;
55518;PMS5003;41724;51.176;-0.708;2024-02-26T06:21:44;5;4;
55518;PMS5003;41724;51.176;-0.708;2024-02-26T06:24:12;4;4;
55518;PMS5003;41724;51.176;-0.708;2024-02-26T06:26:39;4;3;
55518;PMS5003;41724;51.176;-0.708;2024-02-26T06:29:06;5;5;
55518;PMS5003;41724;51.176;-0.708;2024-02-26T06:31:33;6;5;
55518;PMS5003;41724;51.176;-0.708;2024-02-26T06:34:01;5;5;
55518;PMS5003;41724;51.176;-0.708;2024-02-26T06:36:28;5;5;
55518;PMS5003;41724;51.176;-0.708;2024-02-26T06:38:55;4;4;
55518;PMS5003;41724;51.176;-0.708;2024-02-26T06:41:22;5;4;
55518;PMS5003;41724;51.176;-0.708;2024-02-26T06:43:50;2;2;
55518;PMS5003;41724;51.176;-0.708;2024-02-26T06:46:17;4;3;
55518;PMS5003;41724;51.176;-0.708;2024-02-26T06:48:44;3;3;
55518;PMS5003;41724;51.176;-0.708;2024-02-26T06:51:11;3;3;
55518;PMS5003;41724;51.176;-0.708;2024-02-26T06:53:39;4;4;
55518;PMS5003;41724;51.176;-0.708;2024-02-26T06:56:06;4;3;
55518;PMS5003;41724;51.176;-0.708;2024-02-26T06:58:33;3;3;
55518;PMS5003;41724;51.176;-0.708;2024-02-26T07:01:00;3;3;
55518;PMS5003;41724;51.176;-0.708;2024-02-26T07:03:27;3;3;
55518;PMS5003;41724;51.176;-0.708;2024-02-26T07:05:55;4;3;
55518;PMS5003;41724;51.176;-0.708;2024-02-26T07:08:22;3;3;
55518;PMS5003;41724;51.176;-0.708;2024-02-26T07:10:49;2;2;
55518;PMS5003;41724;51.176;-0.708;2024-02-26T07:13:17;4;4;
55518;PMS5003;41724;51.176;-0.708;2024-02-26T07:15:44;3;3;
55518;PMS5003;41724;51.176;-0.708;2024-02-26T07:18:11;3;2;
55518;PMS5003;41724;51.176;-0.708;2024-02-26T07:20:38;1;1;
55518;PMS5003;41724;51.176;-0.708;2024-02-26T07:23:05;1;1;
55518;PMS5003;41724;51.176;-0.708;2024-02-26T07:25:33;4;2;
55518;PMS5003;41724;51.176;-0.708;2024-02-26T07:28:00;3;3;
55518;PMS5003;41724;51.176;-0.708;2024-02-26T07:30:27;1;1;
55518;PMS5003;41724;51.176;-0.708;2024-02-26T07:32:54;2;2;
55518;PMS5003;41724;51.176;-0.708;2024-02-26T07:35:22;2;2;
55518;PMS5003;41724;51.176;-0.708;2024-02-26T07:37:49;2;2;
55518;PMS5003;41724;51.176;-0.708;2024-02-26T07:40:16;1;1;
55518;PMS5003;41724;51.176;-0.708;2024-02-26T07:42:43;3;2;
55518;PMS5003;41724;51.176;-0.708;2024-02-26T07:45:11;2;2;
55518;PMS5003;41724;51.176;-0.708;2024-02-26T07:47:38;2;1;
55518;PMS5003;41724;51.176;-0.708;2024-02-26T07:50:06;2;2;
55518;PMS5003;41724;51.176;-0.708;2024-02-26T07:52:33;1;1;
55518;PMS5003;41724;51.176;-0.708;2024-02-26T07:55:01;1;1;
55518;PMS5003;41724;51.176;-0.708;2024-02-26T07:57:28;2;2;
55518;PMS5003;41724;51.176;-0.708;2024-02-26T07:59:55;2;2;
55518;PMS5003;41724;51.176;-0.708;2024-02-26T08:02:22;2;2;
55518;PMS5003;41724;51.176;-0.708;2024-02-26T08:04:49;4;4;
55518;PMS5003;41724;51.176;-0.708;2024-02-26T08:07:17;3;2;
55518;PMS5003;41724;51.176;-0.708;2024-02-26T08:09:44;1;1;
55518;PMS5003;41724;51.176;-0.708;2024-02-26T08:12:11;4;3;
55518;PMS5003;41724;51.176;-0.708;2024-02-26T08:14:39;2;2;
55518;PMS5003;41724;51.176;-0.708;2024-02-26T08:17:06;2;1;
55518;PMS5003;41724;51.176;-0.708;2024-02-26T08:19:33;2;2;
55518;PMS5003;41724;51.176;-0.708;2024-02-26T08:22:00;3;2;
55518;PMS5003;41724;51.176;-0.708;2024-02-26T08:24:27;3;3;
55518;PMS5003;41724;51.176;-0.708;2024-02-26T08:26:55;1;1;
55518;PMS5003;41724;51.176;-0.708;2024-02-26T08:29:22;2;2;
55518;PMS5003;41724;51.176;-0.708;2024-02-26T08:31:49;3;2;
55518;PMS5003;41724;51.176;-0.708;2024-02-26T08:34:16;1;1;
55518;PMS5003;41724;51.176;-0.708;2024-02-26T08:36:44;2;2;
55518;PMS5003;41724;51.176;-0.708;2024-02-26T08:39:11;3;3;
55518;PMS5003;41724;51.176;-0.708;2024-02-26T08:41:38;3;1;
55518;PMS5003;41724;51.176;-0.708;2024-02-26T08:44:05;1;1;
55518;PMS5003;41724;51.176;-0.708;2024-02-26T08:46:33;2;1;
55518;PMS5003;41724;51.176;-0.708;2024-02-26T08:49:00;2;2;
55518;PMS5003;41724;51.176;-0.708;2024-02-26T08:51:27;3;2;
55518;PMS5003;41724;51.176;-0.708;2024-02-26T08:53:54;1;1;
55518;PMS5003;41724;51.176;-0.708;2024-02-26T08:56:21;1;1;
55518;PMS5003;41724;51.176;-0.708;2024-02-26T08:58:49;1;1;
55518;PMS5003;41724;51.176;-0.708;2024-02-26T09:01:16;2;1;
55518;PMS5003;41724;51.176;-0.708;2024-02-26T09:03:43;0;0;
55518;PMS5003;41724;51.176;-0.708;2024-02-26T09:06:10;1;1;
55518;PMS5003;41724;51.176;-0.708;2024-02-26T09:08:41;1;1;
55518;PMS5003;41724;51.176;-0.708;2024-02-26T09:11:08;2;2;
55518;PMS5003;41724;51.176;-0.708;2024-02-26T09:13:35;0;0;
55518;PMS5003;41724;51.176;-0.708;2024-02-26T09:16:03;1;1;
55518;PMS5003;41724;51.176;-0.708;2024-02-26T09:18:31;4;3;
55518;PMS5003;41724;51.176;-0.708;2024-02-26T09:20:58;2;2;
55518;PMS5003;41724;51.176;-0.708;2024-02-26T09:23:25;2;2;
55518;PMS5003;41724;51.176;-0.708;2024-02-26T09:25:52;2;2;
55518;PMS5003;41724;51.176;-0.708;2024-02-26T09:28:20;3;3;
55518;PMS5003;41724;51.176;-0.708;2024-02-26T09:30:47;2;2;
55518;PMS5003;41724;51.176;-0.708;2024-02-26T09:33:14;1;1;
55518;PMS5003;41724;51.176;-0.708;2024-02-26T09:35:41;2;2;
55518;PMS5003;41724;51.176;-0.708;2024-02-26T09:38:08;3;2;
55518;PMS5003;41724;51.176;-0.708;2024-02-26T09:40:36;1;1;
55518;PMS5003;41724;51.176;-0.708;2024-02-26T09:43:03;1;1;
55518;PMS5003;41724;51.176;-0.708;2024-02-26T09:45:32;1;1;
55518;PMS5003;41724;51.176;-0.708;2024-02-26T09:48:01;0;0;
55518;PMS5003;41724;51.176;-0.708;2024-02-26T09:50:31;3;2;
55518;PMS5003;41724;51.176;-0.708;2024-02-26T09:52:58;2;2;
55518;PMS5003;41724;51.176;-0.708;2024-02-26T09:55:26;1;1;
55518;PMS5003;41724;51.176;-0.708;2024-02-26T09:57:53;1;0;
55518;PMS5003;41724;51.176;-0.708;2024-02-26T10:00:22;2;2;
55518;PMS5003;41724;51.176;-0.708;2024-02-26T10:02:51;3;3;
55518;PMS5003;41724;51.176;-0.708;2024-02-26T10:05:20;1;1;
55518;PMS5003;41724;51.176;-0.708;2024-02-26T10:07:48;1;1;
55518;PMS5003;41724;51.176;-0.708;2024-02-26T10:10:15;1;1;
55518;PMS5003;41724;51.176;-0.708;2024-02-26T10:12:43;1;1;
55518;PMS5003;41724;51.176;-0.708;2024-02-26T10:15:10;2;2;
55518;PMS5003;41724;51.176;-0.708;2024-02-26T10:17:38;2;1;
55518;PMS5003;41724;51.176;-0.708;2024-02-26T10:20:13;2;2;
55518;PMS5003;41724;51.176;-0.708;2024-02-26T10:22:41;4;2;
55518;PMS5003;41724;51.176;-0.708;2024-02-26T10:25:08;0;0;
55518;PMS5003;41724;51.176;-0.708;2024-02-26T10:27:35;1;1;
55518;PMS5003;41724;51.176;-0.708;2024-02-26T10:30:03;1;1;
55518;PMS5003;41724;51.176;-0.708;2024-02-26T10:32:31;4;2;
55518;PMS5003;41724;51.176;-0.708;2024-02-26T10:34:59;2;2;
55518;PMS5003;41724;51.176;-0.708;2024-02-26T10:37:26;1;1;
55518;PMS5003;41724;51.176;-0.708;2024-02-26T10:39:53;2;1;
55518;PMS5003;41724;51.176;-0.708;2024-02-26T10:42:20;3;3;
55518;PMS5003;41724;51.176;-0.708;2024-02-26T10:44:47;1;1;
55518;PMS5003;41724;51.176;-0.708;2024-02-26T10:47:14;1;1;
55518;PMS5003;41724;51.176;-0.708;2024-02-26T10:49:45;1;0;
55518;PMS5003;41724;51.176;-0.708;2024-02-26T10:52:12;2;1;
55518;PMS5003;41724;51.176;-0.708;2024-02-26T10:54:41;6;4;
55518;PMS5003;41724;51.176;-0.708;2024-02-26T10:57:13;4;4;
55518;PMS5003;41724;51.176;-0.708;2024-02-26T10:59:42;3;2;
55518;PMS5003;41724;51.176;-0.708;2024-02-26T11:02:10;3;3;
55518;PMS5003;41724;51.176;-0.708;2024-02-26T11:04:39;4;4;
55518;PMS5003;41724;51.176;-0.708;2024-02-26T11:07:07;3;3;
55518;PMS5003;41724;51.176;-0.708;2024-02-26T11:09:35;2;2;
55518;PMS5003;41724;51.176;-0.708;2024-02-26T11:12:03;5;5;
55518;PMS5003;41724;51.176;-0.708;2024-02-26T11:14:31;6;5;
55518;PMS5003;41724;51.176;-0.708;2024-02-26T11:16:58;6;6;
55518;PMS5003;41724;51.176;-0.708;2024-02-26T11:19:27;5;4;
55518;PMS5003;41724;51.176;-0.708;2024-02-26T11:21:56;3;3;
55518;PMS5003;41724;51.176;-0.708;2024-02-26T11:24:24;4;4;
55518;PMS5003;41724;51.176;-0.708;2024-02-26T11:26:51;4;4;
55518;PMS5003;41724;51.176;-0.708;2024-02-26T11:29:21;2;2;
55518;PMS5003;41724;51.176;-0.708;2024-02-26T11:31:50;1;1;
55518;PMS5003;41724;51.176;-0.708;2024-02-26T11:34:18;1;1;
55518;PMS5003;41724;51.176;-0.708;2024-02-26T11:36:45;1;1;
55518;PMS5003;41724;51.176;-0.708;2024-02-26T11:39:13;2;1;
55518;PMS5003;41724;51.176;-0.708;2024-02-26T11:41:41;1;1;
55518;PMS5003;41724;51.176;-0.708;2024-02-26T11:44:09;1;1;
55518;PMS5003;41724;51.176;-0.708;2024-02-26T11:46:38;2;2;
55518;PMS5003;41724;51.176;-0.708;2024-02-26T11:49:30;1;1;
55518;PMS5003;41724;51.176;-0.708;2024-02-26T11:51:58;2;2;
55518;PMS5003;41724;51.176;-0.708;2024-02-26T11:54:43;1;1;
55518;PMS5003;41724;51.176;-0.708;2024-02-26T11:57:27;0;0;
55518;PMS5003;41724;51.176;-0.708;2024-02-26T11:59:55;2;2;
55518;PMS5003;41724;51.176;-0.708;2024-02-26T12:02:40;3;2;
55518;PMS5003;41724;51.176;-0.708;2024-02-26T12:05:11;4;2;
55518;PMS5003;41724;51.176;-0.708;2024-02-26T12:07:40;1;1;
55518;PMS5003;41724;51.176;-0.708;2024-02-26T12:10:16;1;1;
55518;PMS5003;41724;51.176;-0.708;2024-02-26T12:12:49;2;2;
55518;PMS5003;41724;51.176;-0.708;2024-02-26T12:15:22;1;1;
55518;PMS5003;41724;51.176;-0.708;2024-02-26T12:17:49;1;1;
55518;PMS5003;41724;51.176;-0.708;2024-02-26T12:20:17;2;2;
55518;PMS5003;41724;51.176;-0.708;2024-02-26T12:22:45;2;2;
55518;PMS5003;41724;51.176;-0.708;2024-02-26T12:25:13;2;2;
55518;PMS5003;41724;51.176;-0.708;2024-02-26T12:27:40;3;3;
55518;PMS5003;41724;51.176;-0.708;2024-02-26T12:30:07;2;1;
55518;PMS5003;41724;51.176;-0.708;2024-02-26T12:32:35;1;1;
55518;PMS5003;41724;51.176;-0.708;2024-02-26T12:35:02;2;1;
55518;PMS5003;41724;51.176;-0.708;2024-02-26T12:37:31;3;2;
55518;PMS5003;41724;51.176;-0.708;2024-02-26T12:39:59;2;2;
55518;PMS5003;41724;51.176;-0.708;2024-02-26T12:42:27;2;1;
55518;PMS5003;41724;51.176;-0.708;2024-02-26T12:44:54;2;1;
55518;PMS5003;41724;51.176;-0.708;2024-02-26T12:47:21;0;0;
55518;PMS5003;41724;51.176;-0.708;2024-02-26T12:49:48;1;0;
55518;PMS5003;41724;51.176;-0.708;2024-02-26T12:52:16;1;1;
55518;PMS5003;41724;51.176;-0.708;2024-02-26T12:54:44;1;0;
55518;PMS5003;41724;51.176;-0.708;2024-02-26T12:57:11;1;1;
55518;PMS5003;41724;51.176;-0.708;2024-02-26T12:59:38;0;0;
55518;PMS5003;41724;51.176;-0.708;2024-02-26T13:02:06;3;2;
55518;PMS5003;41724;51.176;-0.708;2024-02-26T13:04:33;1;1;
55518;PMS5003;41724;51.176;-0.708;2024-02-26T13:07:02;1;1;
55518;PMS5003;41724;51.176;-0.708;2024-02-26T13:09:32;2;2;
55518;PMS5003;41724;51.176;-0.708;2024-02-26T13:11:59;2;2;
55518;PMS5003;41724;51.176;-0.708;2024-02-26T13:14:26;1;1;
55518;PMS5003;41724;51.176;-0.708;2024-02-26T13:16:55;1;1;
55518;PMS5003;41724;51.176;-0.708;2024-02-26T13:19:22;1;1;
55518;PMS5003;41724;51.176;-0.708;2024-02-26T13:21:49;3;3;
55518;PMS5003;41724;51.176;-0.708;2024-02-26T13:24:18;3;2;
55518;PMS5003;41724;51.176;-0.708;2024-02-26T13:26:45;2;2;
55518;PMS5003;41724;51.176;-0.708;2024-02-26T13:29:16;2;2;
55518;PMS5003;41724;51.176;-0.708;2024-02-26T13:31:43;2;1;
55518;PMS5003;41724;51.176;-0.708;2024-02-26T13:34:10;2;2;
55518;PMS5003;41724;51.176;-0.708;2024-02-26T13:36:37;3;2;
55518;PMS5003;41724;51.176;-0.708;2024-02-26T13:39:04;3;3;
55518;PMS5003;41724;51.176;-0.708;2024-02-26T13:41:31;1;1;
55518;PMS5003;41724;51.176;-0.708;2024-02-26T13:43:58;1;1;
55518;PMS5003;41724;51.176;-0.708;2024-02-26T13:46:25;2;2;
55518;PMS5003;41724;51.176;-0.708;2024-02-26T13:48:52;1;1;
55518;PMS5003;41724;51.176;-0.708;2024-02-26T13:51:20;1;1;
55518;PMS5003;41724;51.176;-0.708;2024-02-26T13:53:47;1;1;
55518;PMS5003;41724;51.176;-0.708;2024-02-26T13:56:14;1;1;
55518;PMS5003;41724;51.176;-0.708;2024-02-26T13:58:41;0;0;
55518;PMS5003;41724;51.176;-0.708;2024-02-26T14:01:08;1;1;
55518;PMS5003;41724;51.176;-0.708;2024-02-26T14:03:35;1;1;
55518;PMS5003;41724;51.176;-0.708;2024-02-26T14:06:02;2;2;
55518;PMS5003;41724;51.176;-0.708;2024-02-26T14:08:30;3;2;
55518;PMS5003;41724;51.176;-0.708;2024-02-26T14:10:57;1;1;
55518;PMS5003;41724;51.176;-0.708;2024-02-26T14:13:24;0;0;
55518;PMS5003;41724;51.176;-0.708;2024-02-26T14:15:51;0;0;
55518;PMS5003;41724;51.176;-0.708;2024-02-26T14:18:18;1;0;
55518;PMS5003;41724;51.176;-0.708;2024-02-26T14:20:45;0;0;
55518;PMS5003;41724;51.176;-0.708;2024-02-26T14:23:12;1;1;
55518;PMS5003;41724;51.176;-0.708;2024-02-26T14:25:40;1;0;
55518;PMS5003;41724;51.176;-0.708;2024-02-26T14:28:07;1;1;
55518;PMS5003;41724;51.176;-0.708;2024-02-26T14:30:34;1;0;
55518;PMS5003;41724;51.176;-0.708;2024-02-26T14:33:01;1;0;
55518;PMS5003;41724;51.176;-0.708;2024-02-26T14:35:28;1;1;
55518;PMS5003;41724;51.176;-0.708;2024-02-26T14:37:55;1;1;
55518;PMS5003;41724;51.176;-0.708;2024-02-26T14:40:21;1;1;
55518;PMS5003;41724;51.176;-0.708;2024-02-26T14:42:48;1;1;
55518;PMS5003;41724;51.176;-0.708;2024-02-26T14:45:15;2;1;
55518;PMS5003;41724;51.176;-0.708;2024-02-26T14:47:43;2;2;
55518;PMS5003;41724;51.176;-0.708;2024-02-26T14:50:10;0;0;
55518;PMS5003;41724;51.176;-0.708;2024-02-26T14:52:38;1;0;
55518;PMS5003;41724;51.176;-0.708;2024-02-26T14:55:06;0;0;
55518;PMS5003;41724;51.176;-0.708;2024-02-26T14:57:33;2;1;
55518;PMS5003;41724;51.176;-0.708;2024-02-26T15:00:00;0;0;
55518;PMS5003;41724;51.176;-0.708;2024-02-26T15:02:27;1;1;
55518;PMS5003;41724;51.176;-0.708;2024-02-26T15:04:54;1;1;
55518;PMS5003;41724;51.176;-0.708;2024-02-26T15:07:21;2;1;
55518;PMS5003;41724;51.176;-0.708;2024-02-26T15:09:48;1;1;
55518;PMS5003;41724;51.176;-0.708;2024-02-26T15:12:14;2;1;
55518;PMS5003;41724;51.176;-0.708;2024-02-26T15:14:41;0;0;
55518;PMS5003;41724;51.176;-0.708;2024-02-26T15:17:08;1;1;
55518;PMS5003;41724;51.176;-0.708;2024-02-26T15:19:35;1;1;
55518;PMS5003;41724;51.176;-0.708;2024-02-26T15:22:02;1;1;
55518;PMS5003;41724;51.176;-0.708;2024-02-26T15:24:30;3;2;
55518;PMS5003;41724;51.176;-0.708;2024-02-26T15:26:57;0;0;
55518;PMS5003;41724;51.176;-0.708;2024-02-26T15:29:23;0;0;
55518;PMS5003;41724;51.176;-0.708;2024-02-26T15:31:50;0;0;
55518;PMS5003;41724;51.176;-0.708;2024-02-26T15:34:17;1;1;
55518;PMS5003;41724;51.176;-0.708;2024-02-26T15:36:44;1;0;
55518;PMS5003;41724;51.176;-0.708;2024-02-26T15:39:11;0;0;
55518;PMS5003;41724;51.176;-0.708;2024-02-26T15:41:38;1;0;
55518;PMS5003;41724;51.176;-0.708;2024-02-26T15:44:06;1;1;
55518;PMS5003;41724;51.176;-0.708;2024-02-26T15:46:33;0;0;
55518;PMS5003;41724;51.176;-0.708;2024-02-26T15:49:04;1;1;
55518;PMS5003;41724;51.176;-0.708;2024-02-26T15:51:31;2;2;
55518;PMS5003;41724;51.176;-0.708;2024-02-26T15:53:58;0;0;
55518;PMS5003;41724;51.176;-0.708;2024-02-26T15:56:25;0;0;
55518;PMS5003;41724;51.176;-0.708;2024-02-26T15:58:52;1;1;
55518;PMS5003;41724;51.176;-0.708;2024-02-26T16:01:19;3;3;
55518;PMS5003;41724;51.176;-0.708;2024-02-26T16:03:46;0;0;
55518;PMS5003;41724;51.176;-0.708;2024-02-26T16:09:03;0;0;
55518;PMS5003;41724;51.176;-0.708;2024-02-26T16:11:30;4;4;
55518;PMS5003;41724;51.176;-0.708;2024-02-26T16:13:58;1;1;
55518;PMS5003;41724;51.176;-0.708;2024-02-26T16:16:33;1;1;
55518;PMS5003;41724;51.176;-0.708;2024-02-26T16:19:05;1;1;
55518;PMS5003;41724;51.176;-0.708;2024-02-26T16:21:35;1;1;
55518;PMS5003;41724;51.176;-0.708;2024-02-26T16:24:02;1;1;
55518;PMS5003;41724;51.176;-0.708;2024-02-26T16:26:30;3;1;
55518;PMS5003;41724;51.176;-0.708;2024-02-26T16:28:57;0;0;
55518;PMS5003;41724;51.176;-0.708;2024-02-26T16:31:24;2;1;
55518;PMS5003;41724;51.176;-0.708;2024-02-26T16:33:51;2;1;